^^
Station Historical Data
Daily Summary for September 19, 2017 Units:  English    Metric   Both
« Previous Day
Next Day »
Daily Weekly Monthly Yearly Custom
  High: Low: Average:
Temperature: 76.5 °F 67.0 °F 70.1 °F
Dew Point: 67.0 °F 65.0 °F 65.7 °F
Humidity: 94% 72% 86%
Wind Speed: 6.0mph 0.0mph 1.7mph
Wind Gust: 15.0mph - -
Wind- - WNW
Pressure: 30.09 in 29.88 in -
Precipitation: 0.06 in    
Historical Graphs
 
 
Tabular Data for September 19, 2017
Time Temperature Dew Point Pressure Wind Wind Speed Wind Gust Humidity Rainfall Rate (Hourly) Conditions
00:00 67.4 °F 65.3 °F 30.09 in NW 1.0 mph 2.0 mph 93% 0.00 in BKN
00:15 67.2 °F 65.1 °F 30.09 in Calm   2.0 mph 93% 0.00 in BKN
00:30 67.2 °F 65.1 °F 30.09 in Calm   2.0 mph 93% 0.00 in BKN
00:45 67.3 °F 65.2 °F 30.08 in Calm   5.0 mph 93% 0.00 in BKN
01:00 67.3 °F 65.2 °F 30.08 in NW 1.0 mph 2.0 mph 93% 0.00 in BKN
01:15 67.2 °F 65.1 °F 30.08 in Calm   4.0 mph 93% 0.00 in BKN
01:30 67.3 °F 65.2 °F 30.08 in Calm   2.0 mph 93% 0.00 in BKN
01:45 67.4 °F 65.3 °F 30.07 in Calm   1.0 mph 93% 0.00 in BKN
02:00 67.5 °F 65.4 °F 30.07 in Calm   2.0 mph 93% 0.00 in BKN
02:15 67.4 °F 65.3 °F 30.06 in Calm   2.0 mph 93% 0.00 in BKN
02:30 67.4 °F 65.3 °F 30.06 in Calm   2.0 mph 93% 0.00 in BKN
02:45 67.5 °F 65.4 °F 30.05 in Calm   2.0 mph 93% 0.00 in BKN
03:00 67.5 °F 65.4 °F 30.05 in NW 1.0 mph 2.0 mph 93% 0.00 in BKN
03:15 67.6 °F 65.5 °F 30.06 in Calm   2.0 mph 93% 0.00 in BKN
03:45 67.1 °F 65.3 °F 30.05 in Calm   2.0 mph 94% 0.00 in BKN
04:00 67.1 °F 65.3 °F 30.06 in Calm   3.0 mph 94% 0.00 in BKN
04:15 67.0 °F 65.2 °F 30.05 in Calm   2.0 mph 94% 0.00 in OVC
04:30 67.1 °F 65.3 °F 30.05 in Calm   2.0 mph 94% 0.00 in OVC
04:45 67.2 °F 65.4 °F 30.04 in Calm   3.0 mph 94% 0.00 in OVC
05:00 67.3 °F 65.5 °F 30.04 in Calm   2.0 mph 94% 0.00 in OVC
05:15 67.4 °F 65.6 °F 30.04 in Calm   3.0 mph 94% 0.00 in BKN
05:30 67.4 °F 65.6 °F 30.04 in NNW 2.0 mph 6.0 mph 94% 0.00 in BKN
05:45 67.5 °F 65.4 °F 30.04 in Calm   5.0 mph 93% 0.00 in BKN
06:00 67.5 °F 65.4 °F 30.04 in NNW 2.0 mph 5.0 mph 93% 0.00 in BKN
06:15 67.6 °F 65.5 °F 30.04 in North 1.0 mph 6.0 mph 93% 0.00 in OVC
06:30 67.5 °F 65.4 °F 30.03 in NNW 1.0 mph 7.0 mph 93% 0.00 in OVC
06:45 67.4 °F 65.3 °F 30.04 in Calm   4.0 mph 93% 0.00 in OVC
07:00 67.4 °F 65.3 °F 30.04 in Calm   5.0 mph 93% 0.00 in OVC
07:15 67.4 °F 65.3 °F 30.03 in Calm   6.0 mph 93% 0.00 in BKN
07:30 67.5 °F 65.4 °F 30.03 in Calm   6.0 mph 93% 0.00 in BKN
07:45 67.6 °F 65.2 °F 30.04 in Calm   6.0 mph 92% 0.00 in BKN
08:00 67.9 °F 65.2 °F 30.03 in WNW 1.0 mph 8.0 mph 91% 0.00 in BKN
08:15 68.4 °F 65.4 °F 30.02 in NW 2.0 mph 9.0 mph 90% 0.00 in BKN
08:30 68.8 °F 65.4 °F 30.03 in NW 1.0 mph 8.0 mph 89% 0.00 in BKN
08:45 69.5 °F 65.8 °F 30.03 in North 3.0 mph 7.0 mph 88% 0.00 in BKN
09:00 70.8 °F 66.4 °F 30.03 in NNW 1.0 mph 5.0 mph 86% 0.00 in BKN
09:15 71.3 °F 66.2 °F 30.03 in Calm   7.0 mph 84% 0.00 in SCT
09:30 72.0 °F 66.2 °F 30.03 in North 3.0 mph 12.0 mph 82% 0.00 in SCT
09:45 72.5 °F 66.7 °F 30.03 in NNE 1.0 mph 9.0 mph 82% 0.00 in SCT
10:00 73.1 °F 66.9 °F 30.03 in NNW 2.0 mph 10.0 mph 81% 0.00 in SCT
10:15 73.6 °F 67.0 °F 30.03 in NNW 2.0 mph 12.0 mph 80% 0.00 in SCT
10:30 73.1 °F 66.2 °F 30.03 in NNE 3.0 mph 10.0 mph 79% 0.00 in SCT
10:45 73.2 °F 66.6 °F 30.02 in North 3.0 mph 8.0 mph 80% 0.00 in SCT
11:00 73.5 °F 66.6 °F 30.01 in North 5.0 mph 12.0 mph 79% 0.00 in SCT
11:15 74.5 °F 66.8 °F 30.01 in Calm   9.0 mph 77% 0.00 in SCT
11:30 74.0 °F 66.0 °F 30.00 in NW 3.0 mph 10.0 mph 76% 0.00 in SCT
11:45 74.0 °F 66.0 °F 30.01 in WSW 1.0 mph 12.0 mph 76% 0.00 in SCT
12:00 73.6 °F 66.3 °F 30.00 in NNW 2.0 mph 10.0 mph 78% 0.00 in SCT
12:15 73.1 °F 65.8 °F 30.00 in East 2.0 mph 15.0 mph 78% 0.00 in SCT
12:30 73.3 °F 65.7 °F 30.00 in WNW 3.0 mph 8.0 mph 77% 0.00 in SCT
12:45 74.5 °F 66.8 °F 30.00 in West 2.0 mph 7.0 mph 77% 0.00 in SCT
13:00 75.0 °F 66.5 °F 29.99 in NNE 1.0 mph 7.0 mph 75% 0.00 in SCT
13:15 76.5 °F 66.8 °F 29.98 in NNW 5.0 mph 13.0 mph 72% 0.00 in BKN
13:30 75.4 °F 66.1 °F 29.98 in NNW 5.0 mph 13.0 mph 73% 0.00 in BKN
13:45 74.6 °F 66.1 °F 29.97 in WNW 3.0 mph 12.0 mph 75% 0.00 in BKN
14:00 74.4 °F 66.0 °F 29.96 in NNW 3.0 mph 10.0 mph 75% 0.00 in BKN
14:15 74.7 °F 65.4 °F 29.95 in NE 6.0 mph 14.0 mph 73% 0.00 in BKN
14:30 75.4 °F 66.5 °F 29.95 in North 3.0 mph 10.0 mph 74% 0.00 in BKN
14:45 75.0 °F 66.1 °F 29.94 in NNW 3.0 mph 13.0 mph 74% 0.00 in BKN
15:00 74.6 °F 65.8 °F 29.94 in North 2.0 mph 13.0 mph 74% 0.00 in BKN
15:15 74.5 °F 66.1 °F 29.93 in WNW 3.0 mph 12.0 mph 75% 0.00 in -RA
15:30 74.7 °F 66.2 °F 29.93 in NNW 3.0 mph 10.0 mph 75% 0.00 in -RA
15:45 74.1 °F 66.0 °F 29.92 in NW 2.0 mph 12.0 mph 76% 0.00 in -RA
16:00 73.3 °F 66.4 °F 29.93 in North 1.0 mph 8.0 mph 79% 0.00 in -RA
16:15 72.7 °F 66.9 °F 29.92 in NW 1.0 mph 6.0 mph 82% 0.00 in -RA
16:30 72.7 °F 66.9 °F 29.92 in NW 1.0 mph 7.0 mph 82% 0.00 in -RA
16:45 72.7 °F 66.1 °F 29.92 in NNW 2.0 mph 8.0 mph 80% 0.00 in -RA
17:00 72.5 °F 66.0 °F 29.92 in NW 2.0 mph 12.0 mph 80% 0.00 in -RA
17:15 72.4 °F 65.9 °F 29.92 in WNW 3.0 mph 9.0 mph 80% 0.00 in BKN
17:30 72.3 °F 65.8 °F 29.92 in NNW 2.0 mph 15.0 mph 80% 0.00 in BKN
17:45 72.0 °F 65.8 °F 29.92 in NNW 2.0 mph 12.0 mph 81% 0.00 in BKN
18:00 72.0 °F 65.4 °F 29.92 in NW 1.0 mph 9.0 mph 80% 0.00 in BKN
18:15 71.5 °F 65.4 °F 29.91 in NW 2.0 mph 9.0 mph 81% 0.00 in -RA
18:30 71.1 °F 65.3 °F 29.92 in NNW 5.0 mph 13.0 mph 82% 0.00 in -RA
18:45 70.6 °F 65.5 °F 29.91 in NNW 5.0 mph 12.0 mph 84% 0.00 in -RA
19:00 68.8 °F 65.4 °F 29.91 in NNW 2.0 mph 9.0 mph 89% 0.03 in -RA
19:15 67.9 °F 65.5 °F 29.90 in NW 5.0 mph 12.0 mph 92% 0.02 in -RA
19:30 67.6 °F 65.5 °F 29.90 in WNW 1.0 mph 5.0 mph 93% 0.01 in -RA
19:45 67.4 °F 65.3 °F 29.90 in NW 2.0 mph 12.0 mph 93% 0.00 in -RA
20:00 67.3 °F 65.2 °F 29.90 in NW 5.0 mph 7.0 mph 93% 0.00 in -RA
20:15 67.4 °F 65.3 °F 29.90 in NNW 2.0 mph 7.0 mph 93% 0.00 in BKN
20:30 67.5 °F 65.4 °F 29.91 in NW 1.0 mph 7.0 mph 93% 0.00 in BKN
20:45 67.5 °F 65.4 °F 29.91 in NW 2.0 mph 9.0 mph 93% 0.00 in BKN
21:00 67.6 °F 65.2 °F 29.91 in NW 2.0 mph 9.0 mph 92% 0.00 in BKN
21:15 67.8 °F 65.4 °F 29.90 in WNW 2.0 mph 9.0 mph 92% 0.00 in BKN
21:30 68.0 °F 65.3 °F 29.91 in WNW 2.0 mph 7.0 mph 91% 0.00 in BKN
21:45 68.2 °F 65.2 °F 29.90 in WNW 3.0 mph 8.0 mph 90% 0.00 in BKN
22:00 68.4 °F 65.1 °F 29.90 in WNW 3.0 mph 8.0 mph 89% 0.00 in BKN
22:15 68.5 °F 65.1 °F 29.90 in WSW 2.0 mph 13.0 mph 89% 0.00 in BKN
22:30 68.5 °F 65.1 °F 29.89 in NW 3.0 mph 8.0 mph 89% 0.00 in BKN
22:45 68.6 °F 65.2 °F 29.89 in North 2.0 mph 8.0 mph 89% 0.00 in BKN
23:00 68.8 °F 65.4 °F 29.89 in NW 3.0 mph 9.0 mph 89% 0.00 in BKN
23:30 68.8 °F 65.1 °F 29.88 in NW 1.0 mph 9.0 mph 88% 0.00 in BKN
23:45 69.0 °F 65.0 °F 29.88 in NW 2.0 mph 9.0 mph 87% 0.00 in BKN
TarryTown NY Weather
Compliments of Weather Underground - 1.5 mb